Valmiera, Latvia
Current Conditions -  °F | °C
As of 5:20 PM on Sunday 25 Jan 2015 (Local Time) from EVRA Reporting Station
Moderate Snow Moderate Snow  
Wind Chill: 28°   Ceiling: 800
Heat Index: 28°   Visibility: 1.1mi
Dew Point: 28°   Wind: 2mph
Humidity: 100%   Direction: 30°NNE
Pressure: 30.12"   Gusts: NA
Location:  57.55°N, 25.42°E
Report Text: EVRA 251420Z 03002KT 1800 SN BKN008 OVC016 M02/M02 Q1020 R36/590336 TEMPO 3000 SN
Loading
Personal Weather Stations






























Interactive Weather Map New forecast layout! Learn more

10-Day Weather Forecast

Advertisements
Track Severe Weather on mobile